createdAt,value
2019-02-17T00:01:15.317Z,28.67
2019-02-17T00:03:42.025Z,29.05
2019-02-17T00:06:08.822Z,29.07
2019-02-17T00:08:35.523Z,27.62
2019-02-17T00:11:02.237Z,27.58
2019-02-17T00:13:29.285Z,27.17
2019-02-17T00:15:56.000Z,27.93
2019-02-17T00:18:22.703Z,27.73
2019-02-17T00:20:49.441Z,28.35
2019-02-17T00:23:16.144Z,34.48
2019-02-17T00:25:42.851Z,33.73
2019-02-17T00:28:09.556Z,30.45
2019-02-17T00:30:36.280Z,29.42
2019-02-17T00:33:02.999Z,29.87
2019-02-17T00:35:30.896Z,28.67
2019-02-17T00:37:57.604Z,27.67
2019-02-17T00:40:24.319Z,27.82
2019-02-17T00:42:51.257Z,28.15
2019-02-17T00:45:17.956Z,27.32
2019-02-17T00:47:44.665Z,28.12
2019-02-17T00:50:11.369Z,28.90
2019-02-17T00:52:38.091Z,30.40
2019-02-17T00:55:04.855Z,31.27
2019-02-17T00:57:31.551Z,29.50
2019-02-17T00:59:58.264Z,29.80
2019-02-17T01:02:24.959Z,30.82
2019-02-17T01:04:51.923Z,30.80
2019-02-17T01:07:22.242Z,29.15
2019-02-17T01:09:49.300Z,29.75
2019-02-17T01:12:15.995Z,28.32
2019-02-17T01:14:42.711Z,29.77
2019-02-17T01:17:09.466Z,30.27
2019-02-17T01:19:36.172Z,30.27
2019-02-17T01:22:03.079Z,29.85
2019-02-17T01:24:29.780Z,28.02
2019-02-17T01:26:56.467Z,28.95
2019-02-17T01:29:23.176Z,28.65
2019-02-17T01:31:49.887Z,28.55
2019-02-17T01:34:16.615Z,28.45
2019-02-17T01:36:43.320Z,29.48
2019-02-17T01:39:10.018Z,29.02
2019-02-17T01:41:36.817Z,29.07
2019-02-17T01:44:03.775Z,29.18
2019-02-17T01:46:30.923Z,29.37
2019-02-17T01:48:57.723Z,29.37
2019-02-17T01:51:24.519Z,30.17
2019-02-17T01:53:51.223Z,29.52
2019-02-17T01:56:17.924Z,28.75
2019-02-17T01:58:44.639Z,29.20
2019-02-17T02:01:11.336Z,30.12
2019-02-17T02:03:38.051Z,28.70
2019-02-17T02:06:04.743Z,29.95
2019-02-17T02:08:31.442Z,28.75
2019-02-17T02:10:58.147Z,28.02
2019-02-17T02:13:24.971Z,28.20
2019-02-17T02:15:51.668Z,28.23
2019-02-17T02:18:18.371Z,27.90
2019-02-17T02:20:45.072Z,27.80
2019-02-17T02:23:12.133Z,29.45
2019-02-17T02:25:38.843Z,28.40
2019-02-17T02:28:05.539Z,29.02
2019-02-17T02:30:32.253Z,28.55
2019-02-17T02:32:58.951Z,28.73
2019-02-17T02:35:25.653Z,28.02
2019-02-17T02:37:52.361Z,28.30
2019-02-17T02:40:19.067Z,30.50
2019-02-17T02:42:45.763Z,28.02
2019-02-17T02:45:12.571Z,29.70
2019-02-17T02:47:39.279Z,27.95
2019-02-17T02:50:07.338Z,27.00
2019-02-17T02:52:34.039Z,27.95
2019-02-17T02:55:00.759Z,29.80
2019-02-17T02:57:27.547Z,27.77
2019-02-17T02:59:54.259Z,28.23
2019-02-17T03:02:21.052Z,26.65
2019-02-17T03:04:47.752Z,28.12
2019-02-17T03:07:17.235Z,27.52
2019-02-17T03:09:44.343Z,26.60
2019-02-17T03:12:11.028Z,27.45
2019-02-17T03:14:37.738Z,27.02
2019-02-17T03:17:04.441Z,26.90
2019-02-17T03:19:31.147Z,26.50
2019-02-17T03:21:57.842Z,25.60
2019-02-17T03:24:24.547Z,26.33
2019-02-17T03:26:51.243Z,27.02
2019-02-17T03:29:17.946Z,26.57
2019-02-17T03:31:44.653Z,25.55
2019-02-17T03:34:11.365Z,26.90
2019-02-17T03:36:38.172Z,26.55
2019-02-17T03:39:05.578Z,25.95
2019-02-17T03:41:32.973Z,25.48
2019-02-17T03:43:59.679Z,25.97
2019-02-17T03:46:26.383Z,26.93
2019-02-17T03:48:53.086Z,26.15
2019-02-17T03:51:19.788Z,25.77
2019-02-17T03:53:46.495Z,27.42
2019-02-17T03:56:13.188Z,25.45
2019-02-17T03:58:39.916Z,25.23
2019-02-17T04:01:06.699Z,25.12
2019-02-17T04:03:33.393Z,24.60
2019-02-17T04:06:00.286Z,25.02
2019-02-17T04:08:26.978Z,26.10
2019-02-17T04:10:53.684Z,25.65
2019-02-17T04:13:20.383Z,26.15
2019-02-17T04:15:47.183Z,25.88
2019-02-17T04:18:13.997Z,25.52
2019-02-17T04:20:40.688Z,24.87
2019-02-17T04:23:07.393Z,24.20
2019-02-17T04:25:34.196Z,25.10
2019-02-17T04:28:00.915Z,25.08
2019-02-17T04:30:29.734Z,24.92
2019-02-17T04:32:56.743Z,24.27
2019-02-17T04:35:23.448Z,24.45
2019-02-17T04:37:50.155Z,25.43
2019-02-17T04:40:16.864Z,24.25
2019-02-17T04:42:43.567Z,25.68
2019-02-17T04:45:10.279Z,26.60
2019-02-17T04:47:36.980Z,24.95
2019-02-17T04:50:03.971Z,24.02
2019-02-17T04:52:30.771Z,25.57
2019-02-17T04:54:57.468Z,25.08
2019-02-17T04:57:43.813Z,25.50
2019-02-17T05:00:10.500Z,26.17
2019-02-17T05:02:37.203Z,26.12
2019-02-17T05:05:04.371Z,24.25
2019-02-17T05:07:31.073Z,25.32
2019-02-17T05:09:57.768Z,26.55
2019-02-17T05:12:24.463Z,26.12
2019-02-17T05:14:51.151Z,26.10
2019-02-17T05:17:18.192Z,27.10
2019-02-17T05:19:44.892Z,26.52
2019-02-17T05:22:11.591Z,25.80
2019-02-17T05:24:38.381Z,26.55
2019-02-17T05:27:05.175Z,26.40
2019-02-17T05:29:31.861Z,26.62
2019-02-17T05:31:58.559Z,28.00
2019-02-17T05:34:25.279Z,27.87
2019-02-17T05:36:52.059Z,25.95
2019-02-17T05:39:18.772Z,27.35
2019-02-17T05:41:45.861Z,27.15
2019-02-17T05:44:12.549Z,26.27
2019-02-17T05:46:39.238Z,26.37
2019-02-17T05:49:05.943Z,27.07
2019-02-17T05:51:32.647Z,26.17
2019-02-17T05:53:59.355Z,27.42
2019-02-17T05:56:26.037Z,26.87
2019-02-17T05:58:52.740Z,28.12
2019-02-17T06:01:19.529Z,25.62
2019-02-17T06:03:46.227Z,27.42
2019-02-17T06:06:14.899Z,26.93
2019-02-17T06:08:41.521Z,27.42
2019-02-17T06:11:08.215Z,25.97
2019-02-17T06:13:34.913Z,27.70
2019-02-17T06:16:01.607Z,28.17
2019-02-17T06:18:28.327Z,28.27
2019-02-17T06:20:55.003Z,27.32
2019-02-17T06:23:21.691Z,27.52
2019-02-17T06:25:48.411Z,29.37
2019-02-17T06:28:15.171Z,27.27
2019-02-17T06:30:41.899Z,27.95
2019-02-17T06:33:08.604Z,29.72
2019-02-17T06:35:35.308Z,26.40
2019-02-17T06:38:01.992Z,28.73
2019-02-17T06:40:28.687Z,29.63
2019-02-17T06:42:55.395Z,28.70
2019-02-17T06:45:22.091Z,28.42
2019-02-17T06:47:48.791Z,27.87
2019-02-17T06:50:15.483Z,27.48
2019-02-17T06:52:42.163Z,28.65
2019-02-17T06:55:27.131Z,27.42
2019-02-17T06:57:53.837Z,28.12
2019-02-17T07:00:32.164Z,27.70
2019-02-17T07:02:58.862Z,28.07
2019-02-17T07:06:00.469Z,26.75
2019-02-17T07:08:27.248Z,28.45
2019-02-17T07:10:53.939Z,28.62
2019-02-17T07:13:20.647Z,28.95
2019-02-17T07:15:47.346Z,29.42
2019-02-17T07:18:14.059Z,29.82
2019-02-17T07:20:40.976Z,29.85
2019-02-17T07:23:07.691Z,28.15
2019-02-17T07:25:34.392Z,28.73
2019-02-17T07:28:01.095Z,29.18
2019-02-17T07:30:27.803Z,28.32
2019-02-17T07:32:54.504Z,28.90
2019-02-17T07:35:21.211Z,28.83
2019-02-17T07:37:47.924Z,28.57
2019-02-17T07:40:14.631Z,29.90
2019-02-17T07:42:41.334Z,30.62
2019-02-17T07:45:08.236Z,31.48
2019-02-17T07:47:34.937Z,31.60
2019-02-17T07:50:01.676Z,31.23
2019-02-17T07:52:28.376Z,32.88
2019-02-17T07:54:55.092Z,32.70
2019-02-17T07:57:21.795Z,32.75
2019-02-17T07:59:48.500Z,33.10
2019-02-17T08:02:15.211Z,33.83
2019-02-17T08:04:41.922Z,32.60
2019-02-17T08:07:08.642Z,33.40
2019-02-17T08:09:35.354Z,33.02
2019-02-17T08:12:02.075Z,34.27
2019-02-17T08:14:29.007Z,32.67
2019-02-17T08:16:55.729Z,32.60
2019-02-17T08:19:22.435Z,31.15
2019-02-17T08:21:49.149Z,30.20
2019-02-17T08:24:16.095Z,30.60
2019-02-17T08:26:43.112Z,29.00
2019-02-17T08:29:09.815Z,30.75
2019-02-17T08:31:36.531Z,29.45
2019-02-17T08:34:03.247Z,27.22
2019-02-17T08:36:29.963Z,27.82
2019-02-17T08:38:56.684Z,27.87
2019-02-17T08:41:23.435Z,28.30
2019-02-17T08:43:50.203Z,26.62
2019-02-17T08:46:16.919Z,27.15
2019-02-17T08:48:43.639Z,27.45
2019-02-17T08:51:10.337Z,27.10
2019-02-17T08:53:37.356Z,26.83
2019-02-17T08:56:04.067Z,26.70
2019-02-17T08:58:31.648Z,26.17
2019-02-17T09:00:58.351Z,26.07
2019-02-17T09:03:25.048Z,27.00
2019-02-17T09:05:51.979Z,26.07
2019-02-17T09:08:18.691Z,25.57
2019-02-17T09:10:45.507Z,24.67
2019-02-17T09:13:12.223Z,25.40
2019-02-17T09:15:38.936Z,25.30
2019-02-17T09:18:05.761Z,25.13
2019-02-17T09:20:32.460Z,24.33
2019-02-17T09:22:59.167Z,24.57
2019-02-17T09:25:25.879Z,24.23
2019-02-17T09:27:52.582Z,23.93
2019-02-17T09:30:20.082Z,23.90
2019-02-17T09:32:46.815Z,24.27
2019-02-17T09:35:13.987Z,24.13
2019-02-17T09:37:40.771Z,23.33
2019-02-17T09:40:08.763Z,23.23
2019-02-17T09:42:35.532Z,23.83
2019-02-17T09:45:02.508Z,23.50
2019-02-17T09:47:29.480Z,23.43
2019-02-17T09:49:56.177Z,23.63
2019-02-17T09:52:22.903Z,22.90
2019-02-17T09:54:49.605Z,23.10
2019-02-17T09:57:16.327Z,22.00
2019-02-17T09:59:43.039Z,22.50
2019-02-17T10:02:09.752Z,22.37
2019-02-17T10:04:36.463Z,21.83
2019-02-17T10:07:03.271Z,21.73
2019-02-17T10:09:29.996Z,20.07
2019-02-17T10:11:56.712Z,21.80
2019-02-17T10:14:23.424Z,22.33
2019-02-17T10:16:50.123Z,22.07
2019-02-17T10:19:16.822Z,21.60
2019-02-17T10:21:43.521Z,22.57
2019-02-17T10:24:10.243Z,21.90
2019-02-17T10:26:36.955Z,23.07
2019-02-17T10:29:03.656Z,22.07
2019-02-17T10:31:30.395Z,22.60
2019-02-17T10:33:57.108Z,22.13
2019-02-17T10:36:24.131Z,22.50
2019-02-17T10:38:50.847Z,22.53
2019-02-17T10:41:17.577Z,22.53
2019-02-17T10:43:44.409Z,21.20
2019-02-17T10:46:11.096Z,21.97
2019-02-17T10:48:37.796Z,21.43
2019-02-17T10:51:04.603Z,20.93
2019-02-17T10:53:31.319Z,22.10
2019-02-17T10:55:58.256Z,22.60
2019-02-17T10:58:24.978Z,22.10
2019-02-17T11:00:51.701Z,22.30
2019-02-17T11:03:18.391Z,22.87
2019-02-17T11:05:45.204Z,22.87
2019-02-17T11:08:11.914Z,22.07
2019-02-17T11:10:38.610Z,21.60
2019-02-17T11:13:05.415Z,21.83
2019-02-17T11:15:32.130Z,20.60
2019-02-17T11:17:58.827Z,22.57
2019-02-17T11:20:25.536Z,21.60
2019-02-17T11:22:52.259Z,21.40
2019-02-17T11:25:18.968Z,21.10
2019-02-17T11:27:45.688Z,21.80
2019-02-17T11:30:16.100Z,20.43
2019-02-17T11:32:42.905Z,19.50
2019-02-17T11:35:09.631Z,19.33
2019-02-17T11:37:36.434Z,18.87
2019-02-17T11:40:04.451Z,18.97
2019-02-17T11:42:31.171Z,18.83
2019-02-17T11:44:57.888Z,18.83
2019-02-17T11:47:24.699Z,18.87
2019-02-17T11:49:51.399Z,18.90
2019-02-17T11:52:18.108Z,18.03
2019-02-17T11:54:44.814Z,18.10
2019-02-17T11:57:11.520Z,17.43
2019-02-17T11:59:38.225Z,16.27
2019-02-17T12:02:05.115Z,17.63
2019-02-17T12:04:31.815Z,17.13
2019-02-17T12:07:00.343Z,17.67
2019-02-17T12:09:27.256Z,17.23
2019-02-17T12:11:54.011Z,15.77
2019-02-17T12:14:20.717Z,15.67
2019-02-17T12:16:47.525Z,14.40
2019-02-17T12:19:14.223Z,16.27
2019-02-17T12:22:00.611Z,16.80
2019-02-17T12:24:41.564Z,16.43
2019-02-17T12:27:18.655Z,15.63
2019-02-17T12:29:48.137Z,15.43
2019-02-17T12:32:14.855Z,15.77
2019-02-17T12:34:41.947Z,16.33
2019-02-17T12:37:08.760Z,15.30
2019-02-17T12:39:35.476Z,14.17
2019-02-17T12:42:02.193Z,14.93
2019-02-17T12:44:28.886Z,15.37
2019-02-17T12:46:55.595Z,15.50
2019-02-17T12:49:22.300Z,15.83
2019-02-17T12:51:49.027Z,15.70
2019-02-17T12:54:35.419Z,15.70
2019-02-17T12:57:02.396Z,15.27
2019-02-17T12:59:29.198Z,15.90
2019-02-17T13:01:55.899Z,14.83
2019-02-17T13:04:22.591Z,14.27
2019-02-17T13:06:49.308Z,14.67
2019-02-17T13:09:15.999Z,15.40
2019-02-17T13:11:42.691Z,15.20
2019-02-17T13:14:09.391Z,14.17
2019-02-17T13:16:36.103Z,14.40
2019-02-17T13:19:03.342Z,14.53
2019-02-17T13:21:30.023Z,13.87
2019-02-17T13:23:57.025Z,14.70
2019-02-17T13:26:23.727Z,14.47
2019-02-17T13:28:50.415Z,14.90
2019-02-17T13:31:17.115Z,15.00
2019-02-17T13:33:43.828Z,15.43
2019-02-17T13:36:10.631Z,14.13
2019-02-17T13:38:37.559Z,14.87
2019-02-17T13:41:04.255Z,14.80
2019-02-17T13:43:30.948Z,14.80
2019-02-17T13:45:57.659Z,14.93
2019-02-17T13:48:24.362Z,14.30
2019-02-17T13:50:51.055Z,14.30
2019-02-17T13:53:17.763Z,14.70
2019-02-17T13:55:44.460Z,14.47
2019-02-17T13:58:11.259Z,14.17
2019-02-17T14:00:37.975Z,15.57
2019-02-17T14:03:04.710Z,14.20
2019-02-17T14:05:31.482Z,13.60
2019-02-17T14:07:58.163Z,13.97
2019-02-17T14:10:24.860Z,14.33
2019-02-17T14:12:51.551Z,13.27
2019-02-17T14:15:18.360Z,12.33
2019-02-17T14:17:45.055Z,13.13
2019-02-17T14:20:12.367Z,13.43
2019-02-17T14:22:39.185Z,12.90
2019-02-17T14:25:06.060Z,13.00
2019-02-17T14:27:33.107Z,12.33
2019-02-17T14:30:00.218Z,10.90
2019-02-17T14:32:26.963Z,11.40
2019-02-17T14:34:54.052Z,10.77
2019-02-17T14:37:20.848Z,9.40
2019-02-17T14:39:47.942Z,9.87
2019-02-17T14:42:14.638Z,9.70
2019-02-17T14:44:41.611Z,10.67
2019-02-17T14:47:08.311Z,10.60
2019-02-17T14:49:34.999Z,10.33
2019-02-17T14:52:01.697Z,10.53
2019-02-17T14:54:28.403Z,10.70
2019-02-17T14:56:55.119Z,10.37
2019-02-17T14:59:21.811Z,10.30
2019-02-17T15:01:48.532Z,10.40
2019-02-17T15:04:15.543Z,10.10
2019-02-17T15:06:42.258Z,11.70
2019-02-17T15:09:08.968Z,12.07
2019-02-17T15:11:35.683Z,12.30
2019-02-17T15:14:02.933Z,11.23
2019-02-17T15:16:29.968Z,11.50
2019-02-17T15:18:56.669Z,10.13
2019-02-17T15:21:23.352Z,10.50
2019-02-17T15:23:50.071Z,10.10
2019-02-17T15:26:16.764Z,9.40
2019-02-17T15:28:50.614Z,10.23
2019-02-17T15:31:12.084Z,10.90
2019-02-17T15:33:38.795Z,10.80
2019-02-17T15:36:05.953Z,10.80
2019-02-17T15:38:32.659Z,10.13
2019-02-17T15:40:59.361Z,9.87
2019-02-17T15:43:26.071Z,9.30
2019-02-17T15:45:52.817Z,8.90
2019-02-17T15:48:19.640Z,8.27
2019-02-17T15:50:46.363Z,8.30
2019-02-17T15:53:13.070Z,7.80
2019-02-17T15:55:39.756Z,7.80
2019-02-17T15:58:06.467Z,7.73
2019-02-17T16:00:33.171Z,7.97
2019-02-17T16:02:59.974Z,7.97
2019-02-17T16:05:26.676Z,7.23
2019-02-17T16:07:53.374Z,7.57
2019-02-17T16:10:20.100Z,6.97
2019-02-17T16:12:46.794Z,8.20
2019-02-17T16:15:14.243Z,7.90
2019-02-17T16:17:41.135Z,7.10
2019-02-17T16:20:09.675Z,7.83
2019-02-17T16:22:36.488Z,7.90
2019-02-17T16:25:03.824Z,8.13
2019-02-17T16:27:30.527Z,7.03
2019-02-17T16:29:57.229Z,6.57
2019-02-17T16:32:23.955Z,6.70
2019-02-17T16:34:50.651Z,7.77
2019-02-17T16:37:17.352Z,6.53
2019-02-17T16:39:44.459Z,7.27
2019-02-17T16:42:11.156Z,7.10
2019-02-17T16:44:37.868Z,7.50
2019-02-17T16:47:04.563Z,7.17
2019-02-17T16:49:31.263Z,6.93
2019-02-17T16:51:58.056Z,7.57
2019-02-17T16:54:24.756Z,7.90
2019-02-17T16:56:51.448Z,8.00
2019-02-17T16:59:18.154Z,8.93
2019-02-17T17:01:44.864Z,13.13
2019-02-17T17:04:11.759Z,23.87
2019-02-17T17:06:38.463Z,17.93
2019-02-17T17:09:05.784Z,14.40
2019-02-17T17:11:32.483Z,11.47
2019-02-17T17:13:59.193Z,11.23
2019-02-17T17:16:25.992Z,10.10
2019-02-17T17:18:52.723Z,9.87
2019-02-17T17:21:19.527Z,11.30
2019-02-17T17:23:46.264Z,11.10
2019-02-17T17:26:13.192Z,10.10
2019-02-17T17:28:39.908Z,9.80
2019-02-17T17:31:06.717Z,10.00
2019-02-17T17:33:33.411Z,9.13
2019-02-17T17:36:00.120Z,8.87
2019-02-17T17:38:26.819Z,9.40
2019-02-17T17:40:53.557Z,10.40
2019-02-17T17:43:20.384Z,11.17
2019-02-17T17:45:47.278Z,11.50
2019-02-17T17:48:14.032Z,11.13
2019-02-17T17:50:40.769Z,10.77
2019-02-17T17:53:07.723Z,10.30
2019-02-17T17:55:34.553Z,10.83
2019-02-17T17:58:01.236Z,11.53
2019-02-17T18:00:29.340Z,11.00
2019-02-17T18:02:56.048Z,11.90
2019-02-17T18:05:22.751Z,12.77
2019-02-17T18:07:49.452Z,13.90
2019-02-17T18:10:16.259Z,13.13
2019-02-17T18:12:43.059Z,12.40
2019-02-17T18:15:10.551Z,13.63
2019-02-17T18:17:37.500Z,12.63
2019-02-17T18:20:04.761Z,13.40
2019-02-17T18:22:31.468Z,14.17
2019-02-17T18:24:58.186Z,13.33
2019-02-17T18:27:24.887Z,13.93
2019-02-17T18:29:51.596Z,14.13
2019-02-17T18:32:18.624Z,14.83
2019-02-17T18:34:45.316Z,14.87
2019-02-17T18:37:12.026Z,13.43
2019-02-17T18:39:39.159Z,13.40
2019-02-17T18:42:05.864Z,12.90
2019-02-17T18:44:32.663Z,14.53
2019-02-17T18:46:59.700Z,14.00
2019-02-17T18:49:26.725Z,12.47
2019-02-17T18:51:53.432Z,13.87
2019-02-17T18:54:20.132Z,13.37
2019-02-17T18:56:46.831Z,13.27
2019-02-17T18:59:13.549Z,13.17
2019-02-17T19:01:40.264Z,14.57
2019-02-17T19:04:06.967Z,14.43
2019-02-17T19:06:33.698Z,12.93
2019-02-17T19:09:00.400Z,11.20
2019-02-17T19:11:27.208Z,11.03
2019-02-17T19:13:53.907Z,11.13
2019-02-17T19:16:20.979Z,11.60
2019-02-17T19:18:47.927Z,10.53
2019-02-17T19:21:14.640Z,11.03
2019-02-17T19:23:41.344Z,9.33
2019-02-17T19:26:08.142Z,9.53
2019-02-17T19:28:35.187Z,8.73
2019-02-17T19:31:01.996Z,9.47
2019-02-17T19:33:28.714Z,9.37
2019-02-17T19:35:55.648Z,9.77
2019-02-17T19:38:22.369Z,9.60
2019-02-17T19:40:49.071Z,9.37
2019-02-17T19:43:15.786Z,9.17
2019-02-17T19:45:42.495Z,8.93
2019-02-17T19:48:09.207Z,7.87
2019-02-17T19:50:35.917Z,8.90
2019-02-17T19:53:02.628Z,7.97
2019-02-17T19:55:29.328Z,7.63
2019-02-17T19:57:56.035Z,8.40
2019-02-17T20:00:22.740Z,8.80
2019-02-17T20:03:09.125Z,8.37
2019-02-17T20:05:38.590Z,8.17
2019-02-17T20:08:05.284Z,9.53
2019-02-17T20:10:32.297Z,9.97
2019-02-17T20:12:59.393Z,9.37
2019-02-17T20:15:29.235Z,7.80
2019-02-17T20:17:56.211Z,8.37
2019-02-17T20:20:42.811Z,8.57
2019-02-17T20:23:09.507Z,9.07
2019-02-17T20:25:36.315Z,9.47
2019-02-17T20:28:02.995Z,8.93
2019-02-17T20:30:29.692Z,8.90
2019-02-17T20:32:56.379Z,8.10
2019-02-17T20:35:23.091Z,8.80
2019-02-17T20:37:49.808Z,7.90
2019-02-17T20:40:16.632Z,7.67
2019-02-17T20:42:43.332Z,7.87
2019-02-17T20:45:10.322Z,7.40
2019-02-17T20:47:37.011Z,8.03
2019-02-17T20:50:03.944Z,7.57
2019-02-17T20:52:30.639Z,7.27
2019-02-17T20:54:57.568Z,7.10
2019-02-17T20:57:24.267Z,7.70
2019-02-17T20:59:50.978Z,7.33
2019-02-17T21:02:17.686Z,6.83
2019-02-17T21:04:44.392Z,7.40
2019-02-17T21:07:11.291Z,7.63
2019-02-17T21:09:38.000Z,7.83
2019-02-17T21:12:04.900Z,7.73
2019-02-17T21:14:31.696Z,7.40
2019-02-17T21:16:58.394Z,7.57
2019-02-17T21:19:25.087Z,7.53
2019-02-17T21:21:52.175Z,6.80
2019-02-17T21:24:18.873Z,7.13
2019-02-17T21:26:45.587Z,6.97
2019-02-17T21:29:12.276Z,6.90
2019-02-17T21:31:38.977Z,7.23
2019-02-17T21:34:05.671Z,7.13
2019-02-17T21:36:32.380Z,7.10
2019-02-17T21:38:59.075Z,7.40
2019-02-17T21:41:25.787Z,7.43
2019-02-17T21:43:52.479Z,7.80
2019-02-17T21:46:19.183Z,7.93
2019-02-17T21:48:45.869Z,8.00
2019-02-17T21:51:12.575Z,8.27
2019-02-17T21:53:39.264Z,7.60
2019-02-17T21:56:05.967Z,7.67
2019-02-17T21:58:32.659Z,6.93
2019-02-17T22:00:59.353Z,6.90
2019-02-17T22:03:26.056Z,6.60
2019-02-17T22:05:52.760Z,6.47
2019-02-17T22:08:19.460Z,7.10
2019-02-17T22:10:46.555Z,6.83
2019-02-17T22:13:13.243Z,6.97
2019-02-17T22:15:39.943Z,6.93
2019-02-17T22:18:06.639Z,6.20
2019-02-17T22:20:33.340Z,6.73
2019-02-17T22:23:00.039Z,6.60
2019-02-17T22:25:26.742Z,6.50
2019-02-17T22:27:53.455Z,6.90
2019-02-17T22:30:20.168Z,6.90
2019-02-17T22:32:46.872Z,6.90
2019-02-17T22:35:13.946Z,6.77
2019-02-17T22:37:40.814Z,7.47
2019-02-17T22:40:08.231Z,6.63
2019-02-17T22:42:34.947Z,6.77
2019-02-17T22:45:01.647Z,7.00
2019-02-17T22:47:28.445Z,6.80
2019-02-17T22:49:55.416Z,6.93
2019-02-17T22:52:22.117Z,6.77
2019-02-17T22:54:48.932Z,7.20
2019-02-17T22:57:15.952Z,6.83
2019-02-17T22:59:42.659Z,7.17
2019-02-17T23:02:11.931Z,7.13
2019-02-17T23:04:38.376Z,6.80
2019-02-17T23:07:05.179Z,6.90
2019-02-17T23:09:31.883Z,6.80
2019-02-17T23:11:58.691Z,7.13
2019-02-17T23:14:25.405Z,7.97
2019-02-17T23:16:52.100Z,7.97
2019-02-17T23:19:18.803Z,7.13
2019-02-17T23:21:45.712Z,6.97
2019-02-17T23:24:12.719Z,7.53
2019-02-17T23:26:39.426Z,6.90
2019-02-17T23:29:06.549Z,6.83
2019-02-17T23:31:33.241Z,7.30
2019-02-17T23:34:00.441Z,6.63
2019-02-17T23:36:27.139Z,6.47
2019-02-17T23:38:53.847Z,6.97
2019-02-17T23:41:20.759Z,6.80
2019-02-17T23:43:47.455Z,6.60
2019-02-17T23:46:14.170Z,6.70
2019-02-17T23:48:40.887Z,7.13
2019-02-17T23:51:07.591Z,6.80
2019-02-17T23:53:34.292Z,6.63
2019-02-17T23:56:00.999Z,6.97
2019-02-17T23:58:27.700Z,7.27
